Time;durP1;ratioP1;P1;durP2;ratioP2;P2;SDS_P1;SDS_P2;PMS_P1;PMS_P2;Temp;Humidity;BMP_temperature;BMP_pressure;BME280_temperature;BME280_humidity;BME280_pressure;Samples;Min_cycle;Max_cycle;Signal;HPM_P1;HPM_P2
2021/08/06 00:01:08;;;;;;;;;;;;;;;;;;5101901;28;1216;-48
2021/08/06 00:03:33;;;;;;;;;;;;;;;;;;5098634;28;1968;-47
2021/08/06 00:05:58;;;;;;;;;;;;;;;;;;5099176;28;1497;-48
2021/08/06 00:08:23;;;;;;;;;;;;;;;;;;5101533;28;1143;-49
2021/08/06 00:10:49;;;;;;;;;;;;;;;;;;5101410;28;1602;-48
2021/08/06 00:13:14;;;;;;;;;;;;;;;;;;5103538;28;1366;-49
2021/08/06 00:15:39;;;;;;;;;;;;;;;;;;5107194;27;1319;-48
2021/08/06 00:18:04;;;;;;;;;;;;;;;;;;5104412;27;1197;-49
2021/08/06 00:20:30;;;;;;;;;;;;;;;;;;5102423;28;1162;-48
2021/08/06 00:22:56;;;;;;;;;;;;;;;;;;5099240;28;1913;-49
2021/08/06 00:25:21;;;;;;;;;;;;;;;;;;5102770;28;1190;-48
2021/08/06 00:27:46;;;;;;;;;;;;;;;;;;5098838;27;1580;-48
2021/08/06 00:30:11;;;;;;;;;;;;;;;;;;5101039;28;1204;-49
2021/08/06 00:32:37;;;;;;;;;;;;;;;;;;5102206;28;1307;-48
2021/08/06 00:35:02;;;;;;;;;;;;;;;;;;5099128;28;1108;-48
2021/08/06 00:37:27;;;;;;;;;;;;;;;;;;5097707;28;1713;-48
2021/08/06 00:39:52;;;;;;;;;;;;;;;;;;5092231;27;1577;-48
2021/08/06 00:42:17;;;;;;;;;;;;;;;;;;5098378;28;1624;-49
2021/08/06 00:44:43;;;;;;;;;;;;;;;;;;5099671;28;1901;-48
2021/08/06 00:47:08;;;;;;;;;;;;;;;;;;5099235;28;1563;-49
2021/08/06 00:49:33;;;;;;;;;;;;;;;;;;5101504;28;1111;-48
2021/08/06 00:51:58;;;;;;;;;;;;;;;;;;5099305;28;1653;-48
2021/08/06 00:54:23;;;;;;;;;;;;;;;;;;5099150;28;1268;-48
2021/08/06 00:56:49;;;;;;;;;;;;;;;;;;5101321;28;1609;-49
2021/08/06 00:59:14;;;;;;;;;;;;;;;;;;5095744;27;1335;-49
2021/08/06 01:01:39;;;;;;;;;;;;;;;;;;5093534;28;1900;-47
2021/08/06 01:04:10;;;;;;;;;;;;;;;;;;5096773;28;1955;-49
2021/08/06 01:06:43;;;;;;;;;;;;;;;;;;5098245;28;1380;-48
2021/08/06 01:09:13;;;;;;;;;;;;;;;;;;5099828;28;1576;-49
2021/08/06 01:11:38;;;;;;;;;;;;;;;;;;5097146;28;1544;-48
2021/08/06 01:14:04;;;;;;;;;;;;;;;;;;5084085;22;1971;-50
2021/08/06 01:16:32;;;;;;;;;;;;;;;;;;5055884;28;1096;-48
2021/08/06 01:19:06;;;;;;;;;;;;;;;;;;5056664;28;1076;-50
2021/08/06 01:21:31;;;;;;;;;;;;;;;;;;5056076;28;1568;-50
2021/08/06 01:23:57;;;;;;;;;;;;;;;;;;5039374;28;1922;-50
2021/08/06 01:26:22;;;;;;;;;;;;;;;;;;5037925;28;1615;-49
2021/08/06 01:28:48;;;;;;;;;;;;;;;;;;5036452;28;1200;-50
2021/08/06 01:31:14;;;;;;;;;;;;;;;;;;5038404;28;1108;-50
2021/08/06 01:33:39;;;;;;;;;;;;;;;;;;5036177;28;1660;-49
2021/08/06 01:36:04;;;;;;;;;;;;;;;;;;5038150;28;1178;-49
2021/08/06 01:38:30;;;;;;;;;;;;;;;;;;5038153;28;1145;-49
2021/08/06 01:41:13;;;;;;;;;;;;;;;;;;5036603;28;1525;-50
2021/08/06 01:43:53;;;;;;;;;;;;;;;;;;5036247;28;1906;-50
2021/08/06 01:46:37;;;;;;;;;;;;;;;;;;5035684;28;1593;-49
2021/08/06 01:49:13;;;;;;;;;;;;;;;;;;5038388;28;1217;-49
2021/08/06 01:51:38;;;;;;;;;;;;;;;;;;5037357;28;1098;-50
2021/08/06 01:54:04;;;;;;;;;;;;;;;;;;5037576;28;1568;-50
2021/08/06 01:56:29;;;;;;;;;;;;;;;;;;5038133;28;1565;-50
2021/08/06 01:58:55;;;;;;;;;;;;;;;;;;5035675;28;1248;-49
2021/08/06 02:01:20;;;;;;;;;;;;;;;;;;5037171;28;1272;-49
2021/08/06 02:03:45;;;;;;;;;;;;;;;;;;5038241;28;1941;-49
2021/08/06 02:06:11;;;;;;;;;;;;;;;;;;5037284;28;1517;-50
2021/08/06 02:08:36;;;;;;;;;;;;;;;;;;5036874;28;1232;-48
2021/08/06 02:11:01;;;;;;;;;;;;;;;;;;5035255;28;1601;-50
2021/08/06 02:13:27;;;;;;;;;;;;;;;;;;5036011;28;1284;-48
2021/08/06 02:15:52;;;;;;;;;;;;;;;;;;5038044;28;950;-49
2021/08/06 02:18:22;;;;;;;;;;;;;;;;;;5036218;28;1125;-49
2021/08/06 02:20:49;;;;;;;;;;;;;;;;;;5036934;28;1689;-47
2021/08/06 02:23:14;;;;;;;;;;;;;;;;;;5060623;28;1901;-50
2021/08/06 02:25:39;;;;;;;;;;;;;;;;;;5040377;28;1113;-50
2021/08/06 02:28:04;;;;;;;;;;;;;;;;;;5035999;28;1581;-50
2021/08/06 02:30:29;;;;;;;;;;;;;;;;;;5041926;28;1187;-50
2021/08/06 02:32:55;;;;;;;;;;;;;;;;;;5039739;28;1367;-49
2021/08/06 02:35:20;;;;;;;;;;;;;;;;;;5041283;28;1195;-50
2021/08/06 02:37:48;;;;;;;;;;;;;;;;;;5042834;28;1518;-50
2021/08/06 02:40:13;;;;;;;;;;;;;;;;;;5041111;28;923;-50
2021/08/06 02:42:38;;;;;;;;;;;;;;;;;;5042243;28;1638;-50
2021/08/06 02:45:04;;;;;;;;;;;;;;;;;;5041284;28;1910;-49
2021/08/06 02:47:29;;;;;;;;;;;;;;;;;;5039233;28;1336;-48
2021/08/06 02:49:54;;;;;;;;;;;;;;;;;;5037455;28;1526;-50
2021/08/06 02:52:19;;;;;;;;;;;;;;;;;;5035316;28;1474;-50
2021/08/06 02:54:44;;;;;;;;;;;;;;;;;;5041655;28;1183;-49
2021/08/06 02:57:10;;;;;;;;;;;;;;;;;;5039723;28;1593;-50
2021/08/06 02:59:35;;;;;;;;;;;;;;;;;;5041464;28;1184;-50
2021/08/06 03:02:00;;;;;;;;;;;;;;;;;;5042167;28;1306;-50
2021/08/06 03:04:25;;;;;;;;;;;;;;;;;;5042393;28;1902;-50
2021/08/06 03:06:51;;;;;;;;;;;;;;;;;;5040978;28;1172;-50
2021/08/06 03:09:16;;;;;;;;;;;;;;;;;;5040158;28;1629;-50
2021/08/06 03:11:41;;;;;;;;;;;;;;;;;;5039715;28;2004;-49
2021/08/06 03:14:06;;;;;;;;;;;;;;;;;;5041078;28;1426;-50
2021/08/06 03:16:32;;;;;;;;;;;;;;;;;;5041817;28;1180;-49
2021/08/06 03:18:57;;;;;;;;;;;;;;;;;;5040439;28;1751;-50
2021/08/06 03:21:22;;;;;;;;;;;;;;;;;;5042419;28;1169;-50
2021/08/06 03:23:47;;;;;;;;;;;;;;;;;;5043750;28;1971;-50
2021/08/06 03:26:13;;;;;;;;;;;;;;;;;;5041954;28;1621;-50
2021/08/06 03:28:38;;;;;;;;;;;;;;;;;;5039790;28;1168;-50
2021/08/06 03:31:03;;;;;;;;;;;;;;;;;;5040987;28;1450;-50
2021/08/06 03:33:28;;;;;;;;;;;;;;;;;;5040409;28;1406;-49
2021/08/06 03:35:53;;;;;;;;;;;;;;;;;;5041085;28;1660;-50
2021/08/06 03:38:19;;;;;;;;;;;;;;;;;;5042935;28;1300;-50
2021/08/06 03:40:45;;;;;;;;;;;;;;;;;;5039855;28;1652;-48
2021/08/06 03:43:10;;;;;;;;;;;;;;;;;;5042285;28;1965;-50
2021/08/06 03:45:35;;;;;;;;;;;;;;;;;;5041191;28;1097;-49
2021/08/06 03:48:00;;;;;;;;;;;;;;;;;;5040565;28;1110;-49
2021/08/06 03:50:26;;;;;;;;;;;;;;;;;;5040922;28;1105;-50
2021/08/06 03:52:51;;;;;;;;;;;;;;;;;;5037502;28;1792;-50
2021/08/06 03:55:16;;;;;;;;;;;;;;;;;;5040404;28;978;-50
2021/08/06 03:57:50;;;;;;;;;;;;;;;;;;5035171;28;1581;-47
2021/08/06 04:00:16;;;;;;;;;;;;;;;;;;5040055;28;1097;-50
2021/08/06 04:02:43;;;;;;;;;;;;;;;;;;5037767;28;1371;-49
2021/08/06 04:05:08;;;;;;;;;;;;;;;;;;5041510;28;2016;-50
2021/08/06 04:07:34;;;;;;;;;;;;;;;;;;5039985;28;1124;-49
2021/08/06 04:09:59;;;;;;;;;;;;;;;;;;5039728;28;1412;-50
2021/08/06 04:12:24;;;;;;;;;;;;;;;;;;5041285;28;1645;-50
2021/08/06 04:14:49;;;;;;;;;;;;;;;;;;5038107;28;1613;-48
2021/08/06 04:17:14;;;;;;;;;;;;;;;;;;5039791;28;1708;-50
2021/08/06 04:19:39;;;;;;;;;;;;;;;;;;5040180;28;1175;-50
2021/08/06 04:22:05;;;;;;;;;;;;;;;;;;5038626;28;1049;-50
2021/08/06 04:24:30;;;;;;;;;;;;;;;;;;5039518;28;1973;-49
2021/08/06 04:26:55;;;;;;;;;;;;;;;;;;5040132;28;1506;-50
2021/08/06 04:29:20;;;;;;;;;;;;;;;;;;5039176;28;1081;-49
2021/08/06 04:31:46;;;;;;;;;;;;;;;;;;5037763;28;1253;-50
2021/08/06 04:34:11;;;;;;;;;;;;;;;;;;5039500;28;1614;-50
2021/08/06 04:36:36;;;;;;;;;;;;;;;;;;5041494;28;1366;-50
2021/08/06 04:39:01;;;;;;;;;;;;;;;;;;5039132;28;1187;-50
2021/08/06 04:41:26;;;;;;;;;;;;;;;;;;5039855;28;1573;-50
2021/08/06 04:43:51;;;;;;;;;;;;;;;;;;5039808;28;1984;-50
2021/08/06 04:46:17;;;;;;;;;;;;;;;;;;5039190;28;1176;-49
2021/08/06 04:48:42;;;;;;;;;;;;;;;;;;5040697;28;1207;-50
2021/08/06 04:51:07;;;;;;;;;;;;;;;;;;5040576;28;1685;-50
2021/08/06 04:53:34;;;;;;;;;;;;;;;;;;5038765;28;1304;-49
2021/08/06 04:55:59;;;;;;;;;;;;;;;;;;5037682;28;1549;-50
2021/08/06 04:58:24;;;;;;;;;;;;;;;;;;5039328;28;1574;-50
2021/08/06 05:00:49;;;;;;;;;;;;;;;;;;5035375;28;1617;-49
2021/08/06 05:03:14;;;;;;;;;;;;;;;;;;5035526;28;1969;-50
2021/08/06 05:05:40;;;;;;;;;;;;;;;;;;5035818;28;1620;-50
2021/08/06 05:08:05;;;;;;;;;;;;;;;;;;5040469;28;1095;-50
2021/08/06 05:10:30;;;;;;;;;;;;;;;;;;5039182;28;1109;-50
2021/08/06 05:12:55;;;;;;;;;;;;;;;;;;5039207;28;1629;-50
2021/08/06 05:15:20;;;;;;;;;;;;;;;;;;5039658;28;1459;-50
2021/08/06 05:17:46;;;;;;;;;;;;;;;;;;5039899;28;1221;-50
2021/08/06 05:20:11;;;;;;;;;;;;;;;;;;5039223;28;1637;-50
2021/08/06 05:22:36;;;;;;;;;;;;;;;;;;5038299;28;1307;-49
2021/08/06 05:25:01;;;;;;;;;;;;;;;;;;5036102;28;1956;-50
2021/08/06 05:27:27;;;;;;;;;;;;;;;;;;5038850;28;1550;-49
2021/08/06 05:29:52;;;;;;;;;;;;;;;;;;5039192;28;1190;-50
2021/08/06 05:32:17;;;;;;;;;;;;;;;;;;5037638;28;1311;-50
2021/08/06 05:34:42;;;;;;;;;;;;;;;;;;5038046;28;1537;-50
2021/08/06 05:37:07;;;;;;;;;;;;;;;;;;5039420;28;1277;-50
2021/08/06 05:39:33;;;;;;;;;;;;;;;;;;5037292;28;1231;-49
2021/08/06 05:41:58;;;;;;;;;;;;;;;;;;5036944;28;1585;-50
2021/08/06 05:44:23;;;;;;;;;;;;;;;;;;5040762;28;1898;-50
2021/08/06 05:46:48;;;;;;;;;;;;;;;;;;5037877;28;1235;-50
2021/08/06 05:49:13;;;;;;;;;;;;;;;;;;5037011;28;1117;-50
2021/08/06 05:51:38;;;;;;;;;;;;;;;;;;5035761;28;1616;-50
2021/08/06 05:54:04;;;;;;;;;;;;;;;;;;5036995;28;1269;-49
2021/08/06 05:56:29;;;;;;;;;;;;;;;;;;5039970;28;1582;-49
2021/08/06 05:58:54;;;;;;;;;;;;;;;;;;5037134;28;1246;-49
2021/08/06 06:01:20;;;;;;;;;;;;;;;;;;5038073;28;1180;-48
2021/08/06 06:03:45;;;;;;;;;;;;;;;;;;5038230;28;1963;-50
2021/08/06 06:06:10;;;;;;;;;;;;;;;;;;5035266;28;1596;-49
2021/08/06 06:08:35;;;;;;;;;;;;;;;;;;5036909;28;1340;-50
2021/08/06 06:11:00;;;;;;;;;;;;;;;;;;5034084;28;1710;-50
2021/08/06 06:13:26;;;;;;;;;;;;;;;;;;5038174;28;1357;-50
2021/08/06 06:15:51;;;;;;;;;;;;;;;;;;5037247;28;1001;-49
2021/08/06 06:18:16;;;;;;;;;;;;;;;;;;5037343;28;1120;-50
2021/08/06 06:20:41;;;;;;;;;;;;;;;;;;5037980;28;1537;-49
2021/08/06 06:23:06;;;;;;;;;;;;;;;;;;5039268;28;1711;-49
2021/08/06 06:25:32;;;;;;;;;;;;;;;;;;5038059;28;1906;-50
2021/08/06 06:27:57;;;;;;;;;;;;;;;;;;5038030;28;1606;-50
2021/08/06 06:30:24;;;;;;;;;;;;;;;;;;5037099;28;1083;-49
2021/08/06 06:32:49;;;;;;;;;;;;;;;;;;5037500;28;1394;-48
2021/08/06 06:35:14;;;;;;;;;;;;;;;;;;5038602;28;1168;-50
2021/08/06 06:37:39;;;;;;;;;;;;;;;;;;5037094;28;1527;-50
2021/08/06 06:40:05;;;;;;;;;;;;;;;;;;5037952;28;1191;-49
2021/08/06 06:42:30;;;;;;;;;;;;;;;;;;5035041;28;1592;-49
2021/08/06 06:44:55;;;;;;;;;;;;;;;;;;5039666;28;1903;-50
2021/08/06 06:47:20;;;;;;;;;;;;;;;;;;5039179;28;1163;-50
2021/08/06 06:49:46;;;;;;;;;;;;;;;;;;5037152;28;1168;-51
2021/08/06 06:52:11;;;;;;;;;;;;;;;;;;5037791;28;1577;-49
2021/08/06 06:54:36;;;;;;;;;;;;;;;;;;5038727;28;1073;-50
2021/08/06 06:57:01;;;;;;;;;;;;;;;;;;5037330;28;1876;-49
2021/08/06 06:59:26;;;;;;;;;;;;;;;;;;5039206;28;1121;-50
2021/08/06 07:01:52;;;;;;;;;;;;;;;;;;5034764;28;1576;-49
2021/08/06 07:04:17;;;;;;;;;;;;;;;;;;5035538;28;1977;-50
2021/08/06 07:06:42;;;;;;;;;;;;;;;;;;5038177;28;1242;-50
2021/08/06 07:09:08;;;;;;;;;;;;;;;;;;5039232;28;1074;-50
2021/08/06 07:11:33;;;;;;;;;;;;;;;;;;5036895;28;1593;-50
2021/08/06 07:13:58;;;;;;;;;;;;;;;;;;5039321;28;1357;-51
2021/08/06 07:16:24;;;;;;;;;;;;;;;;;;5035520;28;1521;-50
2021/08/06 07:18:49;;;;;;;;;;;;;;;;;;5040760;28;1257;-51
2021/08/06 07:21:14;;;;;;;;;;;;;;;;;;5041510;28;1167;-50
2021/08/06 07:23:39;;;;;;;;;;;;;;;;;;5039090;28;1914;-50
2021/08/06 07:26:04;;;;;;;;;;;;;;;;;;5040404;28;1620;-51
2021/08/06 07:28:29;;;;;;;;;;;;;;;;;;5042243;28;1904;-51
2021/08/06 07:30:55;;;;;;;;;;;;;;;;;;5039797;28;1140;-50
2021/08/06 07:33:20;;;;;;;;;;;;;;;;;;5039884;28;1296;-51
2021/08/06 07:35:45;;;;;;;;;;;;;;;;;;5042729;28;1569;-49
2021/08/06 07:38:10;;;;;;;;;;;;;;;;;;5040337;28;1505;-50
2021/08/06 07:40:35;;;;;;;;;;;;;;;;;;5041157;28;1255;-50
2021/08/06 07:43:01;;;;;;;;;;;;;;;;;;5039187;28;1743;-50
2021/08/06 07:45:26;;;;;;;;;;;;;;;;;;5040407;28;1969;-51
2021/08/06 07:47:51;;;;;;;;;;;;;;;;;;5040274;28;1268;-51
2021/08/06 07:50:17;;;;;;;;;;;;;;;;;;5037860;28;1117;-50
2021/08/06 07:52:42;;;;;;;;;;;;;;;;;;5038198;28;1570;-51
2021/08/06 07:55:08;;;;;;;;;;;;;;;;;;5040115;28;1688;-51
2021/08/06 07:57:33;;;;;;;;;;;;;;;;;;5038842;28;1641;-50
2021/08/06 07:59:58;;;;;;;;;;;;;;;;;;5037211;28;1203;-50
2021/08/06 08:02:24;;;;;;;;;;;;;;;;;;5039380;28;1269;-51
2021/08/06 08:04:49;;;;;;;;;;;;;;;;;;5041072;28;1987;-51
2021/08/06 08:07:14;;;;;;;;;;;;;;;;;;5038301;28;1267;-51
2021/08/06 08:09:39;;;;;;;;;;;;;;;;;;5039880;28;1128;-51
2021/08/06 08:12:05;;;;;;;;;;;;;;;;;;5037656;28;1570;-50
2021/08/06 08:14:30;;;;;;;;;;;;;;;;;;5041103;28;1240;-51
2021/08/06 08:16:55;;;;;;;;;;;;;;;;;;5041077;28;1283;-50
2021/08/06 08:19:20;;;;;;;;;;;;;;;;;;5037012;28;1620;-51
2021/08/06 08:21:46;;;;;;;;;;;;;;;;;;5038356;28;1434;-50
2021/08/06 08:24:11;;;;;;;;;;;;;;;;;;5038863;28;2073;-50
2021/08/06 08:26:38;;;;;;;;;;;;;;;;;;5036253;28;1501;-51
2021/08/06 08:29:03;;;;;;;;;;;;;;;;;;5040019;28;1160;-51
2021/08/06 08:31:28;;;;;;;;;;;;;;;;;;5039013;28;1117;-50
2021/08/06 08:33:53;;;;;;;;;;;;;;;;;;5038622;28;1877;-56
2021/08/06 08:36:19;;;;;;;;;;;;;;;;;;5039017;28;1173;-56
2021/08/06 08:38:44;;;;;;;;;;;;;;;;;;5038464;28;1136;-56
2021/08/06 08:41:10;;;;;;;;;;;;;;;;;;5040262;28;1566;-56
2021/08/06 08:43:35;;;;;;;;;;;;;;;;;;5039990;28;1902;-55
2021/08/06 08:46:00;;;;;;;;;;;;;;;;;;5040605;28;1357;-56
2021/08/06 08:48:25;;;;;;;;;;;;;;;;;;5042114;28;1108;-55
2021/08/06 08:50:54;;;;;;;;;;;;;;;;;;5035918;28;1661;-55
2021/08/06 08:53:19;;;;;;;;;;;;;;;;;;5039246;28;1252;-55
2021/08/06 08:55:44;;;;;;;;;;;;;;;;;;5039028;28;1534;-54
2021/08/06 08:58:10;;;;;;;;;;;;;;;;;;5040215;28;1727;-56
2021/08/06 09:00:35;;;;;;;;;;;;;;;;;;5040748;28;1033;-55
2021/08/06 09:03:00;;;;;;;;;;;;;;;;;;5038899;28;1362;-56
2021/08/06 09:05:28;;;;;;;;;;;;;;;;;;5039120;28;1898;-55
2021/08/06 09:07:53;;;;;;;;;;;;;;;;;;5035348;28;1562;-55
2021/08/06 09:10:19;;;;;;;;;;;;;;;;;;5040171;28;1420;-56
2021/08/06 09:12:45;;;;;;;;;;;;;;;;;;5039714;28;1617;-54
2021/08/06 09:15:10;;;;;;;;;;;;;;;;;;5036713;28;1184;-50
2021/08/06 09:17:36;;;;;;;;;;;;;;;;;;5038294;28;1578;-50
2021/08/06 09:20:05;;;;;;;;;;;;;;;;;;5034319;28;1588;-53
2021/08/06 09:22:30;;;;;;;;;;;;;;;;;;5040099;28;1254;-54
2021/08/06 09:25:13;;;;;;;;;;;;;;;;;;5038241;28;1906;-55
2021/08/06 09:27:40;;;;;;;;;;;;;;;;;;5038450;28;1980;-54
2021/08/06 09:30:06;;;;;;;;;;;;;;;;;;5038423;28;1266;-55
2021/08/06 09:32:48;;;;;;;;;;;;;;;;;;5040911;28;1403;-55
2021/08/06 09:35:15;;;;;;;;;;;;;;;;;;5037729;28;1560;-56
2021/08/06 09:37:40;;;;;;;;;;;;;;;;;;5040732;28;1157;-54
2021/08/06 09:40:10;;;;;;;;;;;;;;;;;;5037329;28;1165;-55
2021/08/06 09:42:35;;;;;;;;;;;;;;;;;;5036293;28;1506;-55
2021/08/06 09:45:04;;;;;;;;;;;;;;;;;;5038612;28;1914;-57
2021/08/06 09:47:30;;;;;;;;;;;;;;;;;;5035978;28;1629;-54
2021/08/06 09:49:56;;;;;;;;;;;;;;;;;;5036978;28;1560;-54
2021/08/06 09:52:28;;;;;;;;;;;;;;;;;;5038392;28;1252;-56
2021/08/06 09:54:53;;;;;;;;;;;;;;;;;;5039101;28;1065;-55
2021/08/06 09:57:19;;;;;;;;;;;;;;;;;;5035965;28;1597;-54
2021/08/06 09:59:45;;;;;;;;;;;;;;;;;;5036800;28;1623;-53
2021/08/06 10:02:20;;;;;;;;;;;;;;;;;;5037529;28;1555;-50
2021/08/06 10:04:58;;;;;;;;;;;;;;;;;;5038873;28;1910;-57
2021/08/06 10:07:26;;;;;;;;;;;;;;;;;;5034856;28;1590;-57
2021/08/06 10:09:51;;;;;;;;;;;;;;;;;;5042848;28;1236;-55
2021/08/06 10:12:16;;;;;;;;;;;;;;;;;;5036923;28;1597;-56
2021/08/06 10:14:42;;;;;;;;;;;;;;;;;;5038190;28;1197;-57
2021/08/06 10:17:07;;;;;;;;;;;;;;;;;;5036845;28;1545;-54
2021/08/06 10:19:32;;;;;;;;;;;;;;;;;;5037643;28;1363;-55
2021/08/06 10:21:57;;;;;;;;;;;;;;;;;;5036893;28;1305;-53
2021/08/06 10:24:23;;;;;;;;;;;;;;;;;;5042540;28;1910;-54
2021/08/06 10:26:48;;;;;;;;;;;;;;;;;;5039265;28;1652;-54
2021/08/06 10:29:13;;;;;;;;;;;;;;;;;;5040032;28;1499;-53
2021/08/06 10:31:38;;;;;;;;;;;;;;;;;;5039302;28;1089;-54
2021/08/06 10:34:07;;;;;;;;;;;;;;;;;;5038171;28;1549;-54
2021/08/06 10:36:40;;;;;;;;;;;;;;;;;;5038558;28;1129;-54
2021/08/06 10:39:05;;;;;;;;;;;;;;;;;;5038354;28;1143;-54
2021/08/06 10:41:36;;;;;;;;;;;;;;;;;;5039038;28;1661;-56
2021/08/06 10:44:03;;;;;;;;;;;;;;;;;;5040269;28;1914;-54
2021/08/06 10:46:48;;;;;;;;;;;;;;;;;;5043684;28;1135;-54
2021/08/06 10:49:13;;;;;;;;;;;;;;;;;;5043866;28;2052;-54
2021/08/06 10:51:38;;;;;;;;;;;;;;;;;;5042368;28;1498;-55
2021/08/06 10:54:03;;;;;;;;;;;;;;;;;;5043332;28;1322;-53
2021/08/06 10:56:29;;;;;;;;;;;;;;;;;;5045276;28;1578;-54
2021/08/06 10:58:55;;;;;;;;;;;;;;;;;;5040032;28;1506;-56
2021/08/06 11:01:27;;;;;;;;;;;;;;;;;;5042941;28;1362;-55
2021/08/06 11:03:56;;;;;;;;;;;;;;;;;;5041253;28;1956;-54
2021/08/06 11:06:46;;;;;;;;;;;;;;;;;;5043137;28;1164;-55
2021/08/06 11:09:26;;;;;;;;;;;;;;;;;;5037071;28;1074;-55
2021/08/06 11:11:52;;;;;;;;;;;;;;;;;;5041163;28;1553;-55
2021/08/06 11:14:29;;;;;;;;;;;;;;;;;;5044002;28;1252;-55
2021/08/06 11:16:58;;;;;;;;;;;;;;;;;;5042291;28;1379;-57
2021/08/06 11:19:30;;;;;;;;;;;;;;;;;;5043121;28;1291;-55
2021/08/06 11:21:56;;;;;;;;;;;;;;;;;;5043347;28;1208;-54
2021/08/06 11:24:21;;;;;;;;;;;;;;;;;;5039550;28;1984;-55
2021/08/06 11:26:47;;;;;;;;;;;;;;;;;;5041473;28;1573;-56
2021/08/06 11:29:13;;;;;;;;;;;;;;;;;;5042474;28;1121;-55
2021/08/06 11:31:38;;;;;;;;;;;;;;;;;;5043122;28;1569;-55
2021/08/06 11:34:06;;;;;;;;;;;;;;;;;;5043563;28;1408;-55
2021/08/06 11:36:33;;;;;;;;;;;;;;;;;;5040882;28;1152;-55
2021/08/06 11:39:04;;;;;;;;;;;;;;;;;;5042195;28;1581;-55
2021/08/06 11:41:30;;;;;;;;;;;;;;;;;;5041488;28;1607;-56
2021/08/06 11:43:55;;;;;;;;;;;;;;;;;;5040798;28;1934;-56
2021/08/06 11:46:20;;;;;;;;;;;;;;;;;;5038798;28;1554;-55
2021/08/06 11:48:48;;;;;;;;;;;;;;;;;;5037991;28;943;-55
2021/08/06 11:51:14;;;;;;;;;;;;;;;;;;5038398;28;1118;-56
2021/08/06 11:53:39;;;;;;;;;;;;;;;;;;5038461;28;1314;-55
2021/08/06 11:56:10;;;;;;;;;;;;;;;;;;5038508;28;1534;-55
2021/08/06 11:58:36;;;;;;;;;;;;;;;;;;5039254;28;1172;-55
2021/08/06 12:01:01;;;;;;;;;;;;;;;;;;5037987;28;1211;-56
2021/08/06 12:03:26;;;;;;;;;;;;;;;;;;5041406;28;1960;-55
2021/08/06 12:05:52;;;;;;;;;;;;;;;;;;5041241;28;1573;-57
2021/08/06 12:08:17;;;;;;;;;;;;;;;;;;5039173;28;1691;-57
2021/08/06 12:10:43;;;;;;;;;;;;;;;;;;5042112;28;1251;-56
2021/08/06 12:13:11;;;;;;;;;;;;;;;;;;5042563;28;2085;-56
2021/08/06 12:15:37;;;;;;;;;;;;;;;;;;5040621;28;1124;-55
2021/08/06 12:18:11;;;;;;;;;;;;;;;;;;5041541;28;1431;-56
2021/08/06 12:20:37;;;;;;;;;;;;;;;;;;5043456;28;1597;-56
2021/08/06 12:23:03;;;;;;;;;;;;;;;;;;5040808;28;1399;-56
2021/08/06 12:25:28;;;;;;;;;;;;;;;;;;5040391;28;1981;-55
2021/08/06 12:27:53;;;;;;;;;;;;;;;;;;5040792;28;1557;-55
2021/08/06 12:30:22;;;;;;;;;;;;;;;;;;5041589;28;1255;-55
2021/08/06 12:32:48;;;;;;;;;;;;;;;;;;5039894;28;1566;-57
2021/08/06 12:35:23;;;;;;;;;;;;;;;;;;5041782;28;1168;-54
2021/08/06 12:37:49;;;;;;;;;;;;;;;;;;5040149;28;1228;-56
2021/08/06 12:40:14;;;;;;;;;;;;;;;;;;5037530;28;1081;-56
2021/08/06 12:42:39;;;;;;;;;;;;;;;;;;5039617;28;1614;-56
2021/08/06 12:45:05;;;;;;;;;;;;;;;;;;5041240;28;1906;-56
2021/08/06 12:47:45;;;;;;;;;;;;;;;;;;5040168;28;1180;-55
2021/08/06 12:50:11;;;;;;;;;;;;;;;;;;5039021;28;1660;-55
2021/08/06 12:52:38;;;;;;;;;;;;;;;;;;5039216;28;1331;-57
2021/08/06 12:55:19;;;;;;;;;;;;;;;;;;5041170;28;1486;-57
2021/08/06 12:58:03;;;;;;;;;;;;;;;;;;5042987;28;1554;-57
2021/08/06 13:00:34;;;;;;;;;;;;;;;;;;5040891;28;1184;-56
2021/08/06 13:03:10;;;;;;;;;;;;;;;;;;5040313;28;1423;-56
2021/08/06 13:05:36;;;;;;;;;;;;;;;;;;5040046;28;1910;-57
2021/08/06 13:08:18;;;;;;;;;;;;;;;;;;5041080;28;1343;-56
2021/08/06 13:10:44;;;;;;;;;;;;;;;;;;5039449;28;1593;-56
2021/08/06 13:13:11;;;;;;;;;;;;;;;;;;5042040;28;1464;-57
2021/08/06 13:15:36;;;;;;;;;;;;;;;;;;5040374;28;1167;-56
2021/08/06 13:18:01;;;;;;;;;;;;;;;;;;5043871;28;1400;-56
2021/08/06 13:20:26;;;;;;;;;;;;;;;;;;5041594;28;1510;-54
2021/08/06 13:22:52;;;;;;;;;;;;;;;;;;5040150;28;1306;-56
2021/08/06 13:25:19;;;;;;;;;;;;;;;;;;5040677;28;1978;-55
2021/08/06 13:27:44;;;;;;;;;;;;;;;;;;5039360;28;1613;-55
2021/08/06 13:30:11;;;;;;;;;;;;;;;;;;5040999;28;1188;-55
2021/08/06 13:32:36;;;;;;;;;;;;;;;;;;5036382;28;1451;-53
2021/08/06 13:35:02;;;;;;;;;;;;;;;;;;5041846;28;1292;-55
2021/08/06 13:37:27;;;;;;;;;;;;;;;;;;5040939;28;1159;-56
2021/08/06 13:39:52;;;;;;;;;;;;;;;;;;5039872;28;1255;-55
2021/08/06 13:42:17;;;;;;;;;;;;;;;;;;5039921;28;1783;-56
2021/08/06 13:44:42;;;;;;;;;;;;;;;;;;5041309;28;1965;-55
2021/08/06 13:47:09;;;;;;;;;;;;;;;;;;5038812;28;1125;-54
2021/08/06 13:49:34;;;;;;;;;;;;;;;;;;5039551;28;1270;-55
2021/08/06 13:51:59;;;;;;;;;;;;;;;;;;5040351;28;1849;-57
2021/08/06 13:54:26;;;;;;;;;;;;;;;;;;5039195;28;1317;-55
2021/08/06 13:56:51;;;;;;;;;;;;;;;;;;5040032;28;1667;-56
2021/08/06 13:59:16;;;;;;;;;;;;;;;;;;5040829;28;1510;-57
2021/08/06 14:01:41;;;;;;;;;;;;;;;;;;5039510;28;1432;-57
2021/08/06 14:04:06;;;;;;;;;;;;;;;;;;5040564;28;1981;-56
2021/08/06 14:06:32;;;;;;;;;;;;;;;;;;4825919;28;1597;-54
2021/08/06 14:08:58;;;;;;;;;;;;;;;;;;5037862;28;978;-55
2021/08/06 14:11:23;;;;;;;;;;;;;;;;;;5040517;28;1392;-55
2021/08/06 14:13:48;;;;;;;;;;;;;;;;;;5038919;28;1314;-56
2021/08/06 14:16:13;;;;;;;;;;;;;;;;;;5040557;28;1177;-55
2021/08/06 14:18:38;;;;;;;;;;;;;;;;;;5039472;28;1215;-54
2021/08/06 14:21:04;;;;;;;;;;;;;;;;;;5037811;28;1542;-56
2021/08/06 14:23:29;;;;;;;;;;;;;;;;;;5039411;28;1283;-54
2021/08/06 14:25:54;;;;;;;;;;;;;;;;;;5035228;28;1979;-56
2021/08/06 14:28:20;;;;;;;;;;;;;;;;;;5041447;28;1527;-56
2021/08/06 14:30:46;;;;;;;;;;;;;;;;;;5038355;28;1108;-57
2021/08/06 14:33:11;;;;;;;;;;;;;;;;;;5039148;28;1221;-55
2021/08/06 14:35:36;;;;;;;;;;;;;;;;;;5038141;28;1513;-56
2021/08/06 14:38:01;;;;;;;;;;;;;;;;;;5037242;28;1568;-55
2021/08/06 14:40:27;;;;;;;;;;;;;;;;;;5040329;28;1383;-57
2021/08/06 14:42:52;;;;;;;;;;;;;;;;;;5037613;28;1580;-55
2021/08/06 14:45:18;;;;;;;;;;;;;;;;;;5037784;28;1969;-57
2021/08/06 14:47:45;;;;;;;;;;;;;;;;;;5038102;28;1295;-57
2021/08/06 14:50:10;;;;;;;;;;;;;;;;;;5038640;28;1030;-55
2021/08/06 14:52:35;;;;;;;;;;;;;;;;;;5038250;28;1700;-55
2021/08/06 14:55:00;;;;;;;;;;;;;;;;;;5039717;28;1173;-56
2021/08/06 14:57:26;;;;;;;;;;;;;;;;;;5039699;28;1621;-55
2021/08/06 14:59:51;;;;;;;;;;;;;;;;;;5038793;28;1594;-55
2021/08/06 15:02:16;;;;;;;;;;;;;;;;;;5039553;28;1252;-55
2021/08/06 15:04:41;;;;;;;;;;;;;;;;;;5039642;28;1898;-55
2021/08/06 15:07:09;;;;;;;;;;;;;;;;;;5037564;28;1656;-55
2021/08/06 15:09:34;;;;;;;;;;;;;;;;;;5039998;28;990;-56
2021/08/06 15:12:00;;;;;;;;;;;;;;;;;;5038174;28;1573;-56
2021/08/06 15:14:25;;;;;;;;;;;;;;;;;;5039658;28;1554;-55
2021/08/06 15:16:50;;;;;;;;;;;;;;;;;;5038533;28;966;-55
2021/08/06 15:19:15;;;;;;;;;;;;;;;;;;5036547;28;1526;-55
2021/08/06 15:21:40;;;;;;;;;;;;;;;;;;5040223;28;1030;-55
2021/08/06 15:24:05;;;;;;;;;;;;;;;;;;5038542;28;1906;-56
2021/08/06 15:26:31;;;;;;;;;;;;;;;;;;5038644;28;1778;-55
2021/08/06 15:28:56;;;;;;;;;;;;;;;;;;5037405;28;1565;-55
2021/08/06 15:31:21;;;;;;;;;;;;;;;;;;5042319;28;1136;-55
2021/08/06 15:33:46;;;;;;;;;;;;;;;;;;5029239;28;1351;-56
2021/08/06 15:36:12;;;;;;;;;;;;;;;;;;5041375;28;1106;-56
2021/08/06 15:38:39;;;;;;;;;;;;;;;;;;5041321;28;1667;-55
2021/08/06 15:41:06;;;;;;;;;;;;;;;;;;5042487;28;1542;-56
2021/08/06 15:43:31;;;;;;;;;;;;;;;;;;5039253;28;1414;-53
2021/08/06 15:45:57;;;;;;;;;;;;;;;;;;5041874;28;1906;-56
2021/08/06 15:48:22;;;;;;;;;;;;;;;;;;5041248;28;1191;-55
2021/08/06 15:50:47;;;;;;;;;;;;;;;;;;5041074;28;1510;-56
2021/08/06 15:53:12;;;;;;;;;;;;;;;;;;5040636;28;1274;-56
2021/08/06 15:55:37;;;;;;;;;;;;;;;;;;5041294;28;1340;-56
2021/08/06 15:58:03;;;;;;;;;;;;;;;;;;5041311;28;1811;-56
2021/08/06 16:00:28;;;;;;;;;;;;;;;;;;5041097;28;1581;-56
2021/08/06 16:02:53;;;;;;;;;;;;;;;;;;5041732;28;1317;-55
2021/08/06 16:05:18;;;;;;;;;;;;;;;;;;5041714;28;1898;-55
2021/08/06 16:07:44;;;;;;;;;;;;;;;;;;5040916;28;1569;-55
2021/08/06 16:10:09;;;;;;;;;;;;;;;;;;5039760;28;1378;-56
2021/08/06 16:12:34;;;;;;;;;;;;;;;;;;5041144;28;1621;-55
2021/08/06 16:14:59;;;;;;;;;;;;;;;;;;5043079;28;1235;-55
2021/08/06 16:17:25;;;;;;;;;;;;;;;;;;5042354;28;1356;-55
2021/08/06 16:19:50;;;;;;;;;;;;;;;;;;5040794;28;1563;-55
2021/08/06 16:22:15;;;;;;;;;;;;;;;;;;5041707;28;1363;-55
2021/08/06 16:24:40;;;;;;;;;;;;;;;;;;5041572;28;1914;-56
2021/08/06 16:27:05;;;;;;;;;;;;;;;;;;5041294;28;1665;-55
2021/08/06 16:29:31;;;;;;;;;;;;;;;;;;5043862;28;1616;-56
2021/08/06 16:31:58;;;;;;;;;;;;;;;;;;5040723;28;1100;-56
2021/08/06 16:34:24;;;;;;;;;;;;;;;;;;5042893;28;1350;-56
2021/08/06 16:36:49;;;;;;;;;;;;;;;;;;5042091;28;1602;-55
2021/08/06 16:39:14;;;;;;;;;;;;;;;;;;5040675;28;1305;-55
2021/08/06 16:41:39;;;;;;;;;;;;;;;;;;5039370;28;1578;-56
2021/08/06 16:44:04;;;;;;;;;;;;;;;;;;5042682;28;1926;-55
2021/08/06 16:46:30;;;;;;;;;;;;;;;;;;5041259;28;1081;-56
2021/08/06 16:48:55;;;;;;;;;;;;;;;;;;5038391;28;1897;-53
2021/08/06 16:51:20;;;;;;;;;;;;;;;;;;5042149;28;1006;-56
2021/08/06 16:53:45;;;;;;;;;;;;;;;;;;5040425;28;1487;-55
2021/08/06 16:56:10;;;;;;;;;;;;;;;;;;5039683;28;1596;-55